createdAt,value
2022-11-05T00:00:04.090Z,100865.03
2022-11-05T00:00:44.771Z,100862.31
2022-11-05T00:01:24.938Z,100865.91
2022-11-05T00:02:05.348Z,100865.19
2022-11-05T00:02:45.478Z,100863.38
2022-11-05T00:03:38.300Z,100867.91
2022-11-05T00:04:18.399Z,100873.03
2022-11-05T00:04:58.394Z,100862.56
2022-11-05T00:05:38.492Z,100863.44
2022-11-05T00:06:18.398Z,100872.47
2022-11-05T00:06:58.894Z,100867.38
2022-11-05T00:07:44.400Z,100865.56
2022-11-05T00:08:24.641Z,100869.03
2022-11-05T00:09:05.020Z,100869.91
2022-11-05T00:09:30.589Z,100867.97
2022-11-05T00:10:00.735Z,100864.56
2022-11-05T00:10:25.307Z,100870.38
2022-11-05T00:10:48.929Z,100879.41
2022-11-05T00:11:15.230Z,100870.38
2022-11-05T00:11:58.107Z,100871.16
2022-11-05T00:12:38.376Z,100873.03
2022-11-05T00:13:19.246Z,100875.84
2022-11-05T00:13:59.796Z,100853.31
2022-11-05T00:14:40.059Z,100868.78
2022-11-05T00:15:20.368Z,100869.69
2022-11-05T00:16:00.605Z,100871.41
2022-11-05T00:16:40.746Z,100871.44
2022-11-05T00:17:03.259Z,100863.44
2022-11-05T00:17:24.869Z,100872.25
2022-11-05T00:17:46.484Z,100861.91
2022-11-05T00:18:09.271Z,100875.84
2022-11-05T00:18:31.443Z,100874.97
2022-11-05T00:19:06.490Z,100876.78
2022-11-05T00:19:28.198Z,100876.97
2022-11-05T00:19:50.744Z,100872.56
2022-11-05T00:20:13.509Z,100874.16
2022-11-05T00:20:35.114Z,100870.63
2022-11-05T00:20:58.042Z,100871.59
2022-11-05T00:21:40.296Z,100873.28
2022-11-05T00:22:20.570Z,100872.50
2022-11-05T00:23:00.595Z,100872.56
2022-11-05T00:23:41.074Z,100862.91
2022-11-05T00:24:24.264Z,100863.69
2022-11-05T00:25:04.587Z,100870.03
2022-11-05T00:25:26.361Z,100866.56
2022-11-05T00:25:57.995Z,100869.16
2022-11-05T00:26:19.667Z,100865.69
2022-11-05T00:26:41.252Z,100863.09
2022-11-05T00:27:03.200Z,100859.81
2022-11-05T00:27:24.921Z,100872.91
2022-11-05T00:27:52.882Z,100873.09
2022-11-05T00:28:14.903Z,100875.75
2022-11-05T00:28:36.521Z,100871.34
2022-11-05T00:29:00.343Z,100875.81
2022-11-05T00:29:22.943Z,100876.63
2022-11-05T00:29:44.529Z,100867.81
2022-11-05T00:30:07.558Z,100876.53
2022-11-05T00:30:31.123Z,100879.28
2022-11-05T00:30:53.837Z,100883.69
2022-11-05T00:31:15.415Z,100876.63
2022-11-05T00:31:37.411Z,100882.69
2022-11-05T00:31:59.017Z,100878.22
2022-11-05T00:32:20.593Z,100879.16
2022-11-05T00:32:43.155Z,100882.69
2022-11-05T00:33:04.710Z,100882.75
2022-11-05T00:33:26.263Z,100883.69
2022-11-05T00:33:48.784Z,100877.56
2022-11-05T00:34:10.397Z,100881.16
2022-11-05T00:34:32.092Z,100875.88
2022-11-05T00:34:53.706Z,100876.72
2022-11-05T00:35:16.959Z,100892.69
2022-11-05T00:35:38.763Z,100884.69
2022-11-05T00:36:02.224Z,100885.56
2022-11-05T00:36:23.857Z,100887.31
2022-11-05T00:36:46.461Z,100889.09
2022-11-05T00:37:08.057Z,100883.75
2022-11-05T00:37:33.126Z,100872.66
2022-11-05T00:37:56.009Z,100874.22
2022-11-05T00:38:19.853Z,100889.28
2022-11-05T00:38:46.728Z,100818.72
2022-11-05T00:39:09.553Z,100845.88
2022-11-05T00:39:33.791Z,100886.44
2022-11-05T00:39:57.186Z,100876.00
2022-11-05T00:40:21.184Z,100882.13
2022-11-05T00:40:44.846Z,100882.94
2022-11-05T00:41:12.899Z,100895.34
2022-11-05T00:41:36.043Z,100889.28
2022-11-05T00:42:13.731Z,100890.22
2022-11-05T00:42:58.353Z,100898.22
2022-11-05T00:43:39.748Z,100893.66
2022-11-05T00:44:28.388Z,100899.81
2022-11-05T00:45:04.538Z,100904.41
2022-11-05T00:45:27.961Z,100907.09
2022-11-05T00:45:51.771Z,100902.63
2022-11-05T00:46:13.379Z,100908.91
2022-11-05T00:46:34.946Z,100899.16
2022-11-05T00:47:11.437Z,100905.41
2022-11-05T00:47:52.925Z,100910.84
2022-11-05T00:48:35.042Z,100895.81
2022-11-05T00:49:15.830Z,100909.13
2022-11-05T00:49:42.029Z,100891.56
2022-11-05T00:50:14.160Z,100909.91
2022-11-05T00:50:39.000Z,100910.00
2022-11-05T00:51:00.808Z,100903.88
2022-11-05T00:51:26.183Z,100916.41
2022-11-05T00:52:11.005Z,100912.88
2022-11-05T00:52:52.617Z,100909.28
2022-11-05T00:53:35.012Z,100907.59
2022-11-05T00:54:28.764Z,100907.84
2022-11-05T00:55:15.672Z,100914.16
2022-11-05T00:55:47.990Z,100913.22
2022-11-05T00:56:27.367Z,100921.09
2022-11-05T00:56:48.954Z,100921.97
2022-11-05T00:57:10.567Z,100927.25
2022-11-05T00:57:32.138Z,100924.63
2022-11-05T00:57:55.182Z,100923.72
2022-11-05T00:58:18.399Z,100920.13
2022-11-05T00:58:39.997Z,100924.53
2022-11-05T00:59:02.572Z,100929.09
2022-11-05T00:59:24.203Z,100923.84
2022-11-05T00:59:45.775Z,100937.28
2022-11-05T01:00:08.691Z,100930.38
2022-11-05T01:00:33.500Z,100925.06
2022-11-05T01:00:57.190Z,100928.78
2022-11-05T01:01:18.882Z,100934.09
2022-11-05T01:01:41.565Z,100942.09
2022-11-05T01:02:03.315Z,100941.19
2022-11-05T01:02:25.048Z,100937.53
2022-11-05T01:02:47.074Z,100935.84
2022-11-05T01:03:11.840Z,100940.25
2022-11-05T01:03:36.262Z,100935.84
2022-11-05T01:03:57.827Z,100937.81
2022-11-05T01:04:19.694Z,100936.91
2022-11-05T01:04:41.316Z,100938.66
2022-11-05T01:05:04.042Z,100928.03
2022-11-05T01:05:25.923Z,100932.25
2022-11-05T01:05:49.835Z,100936.66
2022-11-05T01:06:14.555Z,100936.72
2022-11-05T01:06:36.103Z,100926.28
2022-11-05T01:06:57.638Z,100931.38
2022-11-05T01:07:19.238Z,100941.19
2022-11-05T01:07:41.121Z,100934.94
2022-11-05T01:08:03.686Z,100942.06
2022-11-05T01:08:27.556Z,100945.66
2022-11-05T01:08:49.122Z,100946.38
2022-11-05T01:09:10.866Z,100944.72
2022-11-05T01:09:32.493Z,100940.22
2022-11-05T01:09:55.069Z,100931.53
2022-11-05T01:10:16.603Z,100938.56
2022-11-05T01:10:40.735Z,100928.25
2022-11-05T01:11:09.810Z,100927.38
2022-11-05T01:11:36.902Z,100939.44
2022-11-05T01:11:58.470Z,100934.97
2022-11-05T01:12:20.417Z,100932.44
2022-11-05T01:12:42.943Z,100940.50
2022-11-05T01:13:07.606Z,100934.28
2022-11-05T01:13:33.285Z,100933.41
2022-11-05T01:13:55.791Z,100945.88
2022-11-05T01:14:17.407Z,100934.34
2022-11-05T01:14:38.995Z,100935.22
2022-11-05T01:15:00.607Z,100936.22
2022-11-05T01:15:22.925Z,100938.00
2022-11-05T01:15:46.165Z,100934.41
2022-11-05T01:16:09.976Z,100936.06
2022-11-05T01:16:31.608Z,100939.75
2022-11-05T01:16:53.178Z,100938.91
2022-11-05T01:17:14.743Z,100939.78
2022-11-05T01:17:37.418Z,100938.03
2022-11-05T01:17:59.122Z,100937.19
2022-11-05T01:18:21.588Z,100935.47
2022-11-05T01:18:44.205Z,100943.34
2022-11-05T01:19:07.358Z,100944.25
2022-11-05T01:19:29.621Z,100946.13
2022-11-05T01:19:51.302Z,100943.47
2022-11-05T01:20:13.174Z,100944.44
2022-11-05T01:20:35.738Z,100945.31
2022-11-05T01:20:57.336Z,100939.09
2022-11-05T01:21:18.875Z,100942.75
2022-11-05T01:21:40.490Z,100934.69
2022-11-05T01:22:02.063Z,100937.34
2022-11-05T01:22:24.635Z,100945.31
2022-11-05T01:22:46.301Z,100949.72
2022-11-05T01:23:13.302Z,100944.56
2022-11-05T01:23:36.187Z,100949.81
2022-11-05T01:23:57.770Z,100951.69
2022-11-05T01:24:19.371Z,100935.78
2022-11-05T01:24:40.994Z,100945.75
2022-11-05T01:25:02.994Z,100948.41
2022-11-05T01:25:25.869Z,100948.38
2022-11-05T01:25:47.515Z,100944.81
2022-11-05T01:26:09.251Z,100944.09
2022-11-05T01:26:32.198Z,100951.06
2022-11-05T01:26:54.755Z,100938.72
2022-11-05T01:27:16.338Z,100943.09
2022-11-05T01:27:38.477Z,100945.69
2022-11-05T01:28:01.388Z,100948.41
2022-11-05T01:28:23.989Z,100950.16
2022-11-05T01:28:49.914Z,100946.69
2022-11-05T01:29:11.662Z,100945.88
2022-11-05T01:29:33.339Z,100950.38
2022-11-05T01:29:55.840Z,100953.13
2022-11-05T01:30:17.481Z,100947.78
2022-11-05T01:30:39.172Z,100952.13
2022-11-05T01:31:01.714Z,100948.59
2022-11-05T01:31:24.415Z,100944.09
2022-11-05T01:31:46.075Z,100946.63
2022-11-05T01:32:07.630Z,100951.06
2022-11-05T01:32:29.350Z,100944.81
2022-11-05T01:32:51.849Z,100943.97
2022-11-05T01:33:13.633Z,100951.91
2022-11-05T01:33:35.457Z,100951.94
2022-11-05T01:33:57.028Z,100945.75
2022-11-05T01:34:18.619Z,100949.41
2022-11-05T01:34:41.205Z,100951.22
2022-11-05T01:35:04.068Z,100946.06
2022-11-05T01:35:25.635Z,100954.69
2022-11-05T01:36:33.744Z,100957.38
2022-11-05T01:36:55.351Z,100962.78
2022-11-05T01:37:16.896Z,100955.72
2022-11-05T01:37:39.796Z,100960.25
2022-11-05T01:38:01.399Z,100957.59
2022-11-05T01:38:23.319Z,100955.03
2022-11-05T01:38:45.237Z,100957.72
2022-11-05T01:39:07.875Z,100963.94
2022-11-05T01:39:29.469Z,100963.09
2022-11-05T01:39:51.089Z,100954.16
2022-11-05T01:40:15.083Z,100963.03
2022-11-05T01:40:37.259Z,100969.16
2022-11-05T01:40:58.823Z,100959.50
2022-11-05T01:41:20.464Z,100964.88
2022-11-05T01:41:44.350Z,100964.88
2022-11-05T01:42:15.096Z,100964.03
2022-11-05T01:42:36.858Z,100965.75
2022-11-05T01:42:59.370Z,100961.28
2022-11-05T01:43:23.229Z,100972.00
2022-11-05T01:43:48.238Z,100965.78
2022-11-05T01:44:40.084Z,100969.38
2022-11-05T01:45:12.309Z,100966.72
2022-11-05T01:45:34.879Z,100971.34
2022-11-05T01:45:58.516Z,100972.22
2022-11-05T01:46:23.608Z,100957.22
2022-11-05T01:46:47.660Z,100966.72
2022-11-05T01:47:14.658Z,100973.00
2022-11-05T01:47:42.813Z,100951.97
2022-11-05T01:48:12.358Z,100968.59
2022-11-05T01:48:35.579Z,100964.91
2022-11-05T01:49:06.720Z,100970.41
2022-11-05T01:49:32.104Z,100974.00
2022-11-05T01:49:54.425Z,100968.59
2022-11-05T01:50:28.018Z,100961.84
2022-11-05T01:50:55.629Z,100962.59
2022-11-05T01:51:22.230Z,100967.78
2022-11-05T01:51:46.765Z,100974.78
2022-11-05T01:52:08.472Z,100974.69
2022-11-05T01:52:34.942Z,100973.91
2022-11-05T01:53:02.544Z,100981.94
2022-11-05T01:53:30.363Z,100970.53
2022-11-05T01:53:57.191Z,100978.56
2022-11-05T01:54:24.257Z,100976.84
2022-11-05T01:54:47.015Z,100977.53
2022-11-05T01:55:10.227Z,100956.50
2022-11-05T01:55:37.650Z,100969.53
2022-11-05T01:56:03.140Z,100981.94
2022-11-05T01:56:30.364Z,100970.41
2022-11-05T01:57:00.239Z,100963.28
2022-11-05T01:57:21.901Z,100967.66
2022-11-05T01:57:43.456Z,100971.13
2022-11-05T01:58:07.801Z,100966.63
2022-11-05T01:58:35.370Z,100960.50
2022-11-05T01:59:01.023Z,100973.69
2022-11-05T01:59:29.099Z,100976.34
2022-11-05T01:59:58.510Z,100973.75
2022-11-05T02:00:21.261Z,100951.97
2022-11-05T02:00:43.483Z,100963.25
2022-11-05T02:01:05.226Z,100976.41
2022-11-05T02:01:27.706Z,100969.28
2022-11-05T02:01:51.448Z,100976.50
2022-11-05T02:02:13.240Z,100977.50
2022-11-05T02:02:34.988Z,100977.63
2022-11-05T02:02:57.265Z,100977.63
2022-11-05T02:03:20.434Z,100974.78
2022-11-05T02:03:42.917Z,100974.81
2022-11-05T02:04:08.646Z,100975.75
2022-11-05T02:04:35.509Z,100973.91
2022-11-05T02:05:01.414Z,100971.25
2022-11-05T02:05:23.278Z,100981.03
2022-11-05T02:05:45.849Z,100974.00
2022-11-05T02:06:09.745Z,100975.75
2022-11-05T02:06:34.958Z,100955.75
2022-11-05T02:06:56.904Z,100988.19
2022-11-05T02:07:19.382Z,100980.19
2022-11-05T02:07:43.835Z,100976.56
2022-11-05T02:08:07.271Z,100977.50
2022-11-05T02:08:45.187Z,100973.25
2022-11-05T02:09:12.494Z,100981.41
2022-11-05T02:09:40.451Z,100980.31
2022-11-05T02:10:05.060Z,100976.91
2022-11-05T02:10:27.961Z,100979.50
2022-11-05T02:10:50.554Z,100978.63
2022-11-05T02:11:15.110Z,100973.47
2022-11-05T02:11:36.870Z,100966.56
2022-11-05T02:11:59.829Z,100989.53
2022-11-05T02:12:22.922Z,100980.69
2022-11-05T02:12:47.899Z,100981.63
2022-11-05T02:13:09.873Z,100978.25
2022-11-05T02:13:38.274Z,100974.66
2022-11-05T02:14:00.988Z,100982.53
2022-11-05T02:14:22.851Z,100984.25
2022-11-05T02:14:44.537Z,100982.50
2022-11-05T02:15:07.219Z,100978.94
2022-11-05T02:15:41.430Z,100973.78
2022-11-05T02:16:12.088Z,100979.78
2022-11-05T02:16:39.433Z,100986.94
2022-11-05T02:17:07.403Z,100979.06
2022-11-05T02:17:39.599Z,100979.03
2022-11-05T02:18:14.116Z,100979.94
2022-11-05T02:18:47.866Z,100983.47
2022-11-05T02:19:37.476Z,100982.03
2022-11-05T02:20:28.014Z,100991.56
2022-11-05T02:20:58.755Z,100989.88
2022-11-05T02:21:47.057Z,100977.59
2022-11-05T02:22:34.848Z,100984.59
2022-11-05T02:23:26.830Z,100985.56
2022-11-05T02:24:06.392Z,100984.56
2022-11-05T02:25:05.686Z,100989.94
2022-11-05T02:25:55.235Z,100990.84
2022-11-05T02:27:05.665Z,100991.72
2022-11-05T02:27:53.463Z,100988.28
2022-11-05T02:28:37.277Z,100966.50
2022-11-05T02:29:22.373Z,100958.69
2022-11-05T02:30:06.200Z,100989.41
2022-11-05T02:30:40.998Z,100998.41
2022-11-05T02:31:07.781Z,100998.34
2022-11-05T02:31:37.347Z,100995.78
2022-11-05T02:32:08.024Z,100987.97
2022-11-05T02:32:54.798Z,100992.41
2022-11-05T02:33:31.663Z,100987.88
2022-11-05T02:34:03.260Z,100993.09
2022-11-05T02:34:32.968Z,100990.56
2022-11-05T02:35:02.524Z,100986.03
2022-11-05T02:35:38.013Z,100991.31
2022-11-05T02:36:14.776Z,100997.50
2022-11-05T02:36:43.183Z,100989.41
2022-11-05T02:37:14.852Z,100993.91
2022-11-05T02:37:39.653Z,100993.84
2022-11-05T02:38:07.947Z,100986.97
2022-11-05T02:38:40.228Z,100992.94
2022-11-05T02:39:11.800Z,100991.13
2022-11-05T02:39:42.689Z,100995.59
2022-11-05T02:40:14.510Z,100998.34
2022-11-05T02:40:45.241Z,100987.06
2022-11-05T02:41:14.342Z,101009.06
2022-11-05T02:41:45.213Z,100994.72
2022-11-05T02:42:15.518Z,100996.59
2022-11-05T02:42:44.352Z,100993.00
2022-11-05T02:43:16.103Z,100994.63
2022-11-05T02:43:47.747Z,101002.63
2022-11-05T02:44:20.141Z,100995.66
2022-11-05T02:44:49.498Z,101003.59
2022-11-05T02:45:25.936Z,101004.41
2022-11-05T02:45:58.551Z,100999.09
2022-11-05T02:46:33.060Z,101002.47
2022-11-05T02:47:00.134Z,101000.72
2022-11-05T02:47:26.783Z,101001.53
2022-11-05T02:47:52.477Z,100999.84
2022-11-05T02:48:23.179Z,101003.25
2022-11-05T02:48:50.263Z,101000.63
2022-11-05T02:49:22.675Z,101001.47
2022-11-05T02:49:53.100Z,101001.41
2022-11-05T02:50:24.940Z,101002.38
2022-11-05T02:50:52.914Z,100993.72
2022-11-05T02:51:23.431Z,100989.47
2022-11-05T02:51:52.432Z,101000.59
2022-11-05T02:52:20.304Z,101001.50
2022-11-05T02:52:50.207Z,100993.56
2022-11-05T02:53:19.272Z,101002.34
2022-11-05T02:53:50.827Z,100998.00
2022-11-05T02:54:19.459Z,101001.50
2022-11-05T02:54:47.956Z,100998.84
2022-11-05T02:55:22.406Z,101003.25
2022-11-05T02:55:51.162Z,100994.63
2022-11-05T02:56:18.317Z,100997.06
2022-11-05T02:56:44.006Z,100996.97
2022-11-05T02:57:06.137Z,100993.34
2022-11-05T02:57:30.491Z,100987.28
2022-11-05T02:57:52.170Z,101004.16
2022-11-05T02:58:13.751Z,101000.53
2022-11-05T02:58:35.479Z,100996.88
2022-11-05T02:58:57.040Z,101003.00
2022-11-05T02:59:19.611Z,101001.31
2022-11-05T02:59:41.211Z,100996.81
2022-11-05T03:00:06.691Z,100995.97
2022-11-05T03:00:52.425Z,100990.69
2022-11-05T03:01:14.281Z,101006.41
2022-11-05T03:01:37.797Z,101002.06
2022-11-05T03:02:03.108Z,100997.59
2022-11-05T03:02:24.890Z,100994.06
2022-11-05T03:02:46.938Z,100995.06
2022-11-05T03:03:17.968Z,101000.38
2022-11-05T03:03:43.863Z,100988.69
2022-11-05T03:04:08.297Z,101000.34
2022-11-05T03:04:30.834Z,100998.63
2022-11-05T03:04:52.416Z,100998.47
2022-11-05T03:05:14.326Z,100998.50
2022-11-05T03:05:44.960Z,100998.50
2022-11-05T03:06:34.189Z,100997.06
2022-11-05T03:07:19.582Z,100994.50
2022-11-05T03:07:48.162Z,100998.81
2022-11-05T03:08:16.322Z,100994.41
2022-11-05T03:08:55.127Z,100998.84
2022-11-05T03:09:51.177Z,100976.31
2022-11-05T03:10:38.942Z,101004.16
2022-11-05T03:11:06.421Z,101005.00
2022-11-05T03:11:31.950Z,100983.28
2022-11-05T03:12:02.743Z,101007.72
2022-11-05T03:12:32.980Z,100999.84
2022-11-05T03:13:09.900Z,101000.59
2022-11-05T03:13:36.867Z,101002.38
2022-11-05T03:14:04.014Z,101005.00
2022-11-05T03:14:37.448Z,101001.41
2022-11-05T03:15:11.241Z,101004.88
2022-11-05T03:15:47.070Z,101004.00
2022-11-05T03:16:17.898Z,101004.78
2022-11-05T03:16:42.843Z,101004.84
2022-11-05T03:17:11.167Z,101001.41
2022-11-05T03:17:38.944Z,100996.13
2022-11-05T03:18:10.507Z,100999.47
2022-11-05T03:18:40.719Z,101003.00
2022-11-05T03:19:13.067Z,101002.94
2022-11-05T03:19:44.090Z,101006.50
2022-11-05T03:20:18.395Z,100996.13
2022-11-05T03:20:45.708Z,101010.00
2022-11-05T03:21:14.871Z,101018.81
2022-11-05T03:21:43.912Z,101012.63
2022-11-05T03:22:10.792Z,101010.84
2022-11-05T03:22:38.543Z,101007.28
2022-11-05T03:23:09.923Z,101002.94
2022-11-05T03:23:38.955Z,101002.00
2022-11-05T03:24:08.362Z,101009.13
2022-11-05T03:24:35.733Z,100998.38
2022-11-05T03:25:01.711Z,101007.34
2022-11-05T03:25:25.866Z,101003.75
2022-11-05T03:25:50.962Z,101003.81
2022-11-05T03:26:19.024Z,101009.25
2022-11-05T03:26:45.346Z,101006.50
2022-11-05T03:27:10.980Z,101008.16
2022-11-05T03:27:39.162Z,101010.88
2022-11-05T03:28:06.453Z,100987.31
2022-11-05T03:28:32.289Z,101009.88
2022-11-05T03:28:58.735Z,101004.50
2022-11-05T03:29:26.200Z,101008.16
2022-11-05T03:29:52.130Z,101008.03
2022-11-05T03:30:16.218Z,101005.34
2022-11-05T03:30:40.957Z,101007.22
2022-11-05T03:31:04.463Z,101007.22
2022-11-05T03:31:31.751Z,101004.56
2022-11-05T03:31:56.784Z,101007.19
2022-11-05T03:32:20.914Z,101000.97
2022-11-05T03:32:48.904Z,101000.22
2022-11-05T03:33:16.544Z,101005.38
2022-11-05T03:33:39.905Z,101007.19
2022-11-05T03:34:04.604Z,101005.34
2022-11-05T03:34:31.696Z,101009.84
2022-11-05T03:35:01.675Z,101006.38
2022-11-05T03:35:28.018Z,101006.38
2022-11-05T03:35:54.050Z,100998.44
2022-11-05T03:36:24.303Z,101009.13
2022-11-05T03:36:50.743Z,101004.72
2022-11-05T03:37:12.792Z,101003.84
2022-11-05T03:37:40.622Z,101005.50
2022-11-05T03:38:05.381Z,101000.97
2022-11-05T03:38:32.289Z,101000.94
2022-11-05T03:38:57.607Z,100997.38
2022-11-05T03:39:25.130Z,100973.03
2022-11-05T03:39:50.837Z,101005.34
2022-11-05T03:40:14.882Z,100997.34
2022-11-05T03:40:39.390Z,101001.84
2022-11-05T03:41:07.486Z,101002.72
2022-11-05T03:41:29.642Z,101002.69
2022-11-05T03:41:53.944Z,101003.56
2022-11-05T03:42:19.470Z,101006.25
2022-11-05T03:42:44.701Z,101005.44
2022-11-05T03:43:08.810Z,100991.47
2022-11-05T03:43:35.400Z,101008.03
2022-11-05T03:44:01.502Z,101007.19
2022-11-05T03:44:26.947Z,101008.00
2022-11-05T03:44:52.643Z,101005.44
2022-11-05T03:45:18.022Z,101013.41
2022-11-05T03:45:44.890Z,101009.88
2022-11-05T03:46:10.376Z,101012.53
2022-11-05T03:46:38.632Z,101011.59
2022-11-05T03:47:05.202Z,101017.78
2022-11-05T03:47:32.619Z,101018.59
2022-11-05T03:47:58.779Z,101016.03
2022-11-05T03:48:25.092Z,101015.16
2022-11-05T03:48:49.755Z,101017.81
2022-11-05T03:49:17.614Z,101022.91
2022-11-05T03:49:44.792Z,101021.16
2022-11-05T03:50:14.183Z,101020.31
2022-11-05T03:50:41.691Z,101027.53
2022-11-05T03:51:09.546Z,101023.13
2022-11-05T03:51:41.737Z,101024.94
2022-11-05T03:52:08.253Z,101025.88
2022-11-05T03:52:36.971Z,101024.19
2022-11-05T03:53:04.999Z,101024.94
2022-11-05T03:53:30.091Z,101023.19
2022-11-05T03:53:56.151Z,101024.94
2022-11-05T03:54:18.908Z,101030.28
2022-11-05T03:54:40.735Z,101029.41
2022-11-05T03:55:02.385Z,101011.84
2022-11-05T03:55:28.165Z,101026.56
2022-11-05T03:55:56.466Z,101027.53
2022-11-05T03:56:23.859Z,101026.50
2022-11-05T03:56:58.669Z,101030.91
2022-11-05T03:57:25.930Z,101027.41
2022-11-05T03:57:50.485Z,101034.47
2022-11-05T03:58:13.777Z,101031.69
2022-11-05T03:58:36.283Z,101037.06
2022-11-05T03:59:00.387Z,101033.50
2022-11-05T03:59:23.662Z,101030.81
2022-11-05T03:59:47.859Z,101031.69
2022-11-05T04:00:11.412Z,101022.19
2022-11-05T04:00:36.137Z,101025.66
2022-11-05T04:01:01.878Z,101033.59
2022-11-05T04:01:23.751Z,101031.69
2022-11-05T04:01:47.833Z,101029.91
2022-11-05T04:02:10.099Z,101035.28
2022-11-05T04:02:32.874Z,101039.69
2022-11-05T04:02:55.238Z,101018.69
2022-11-05T04:03:16.937Z,101038.88
2022-11-05T04:03:38.588Z,101030.97
2022-11-05T04:04:00.151Z,101031.03
2022-11-05T04:04:22.751Z,101033.69
2022-11-05T04:04:44.514Z,101036.22
2022-11-05T04:05:06.584Z,101035.28
2022-11-05T04:05:28.352Z,101034.34
2022-11-05T04:06:05.852Z,101039.84
2022-11-05T04:06:46.108Z,101037.06
2022-11-05T04:07:27.326Z,101032.84
2022-11-05T04:08:13.902Z,101042.63
2022-11-05T04:08:54.407Z,101040.00
2022-11-05T04:09:34.614Z,101039.31
2022-11-05T04:10:14.945Z,101045.47
2022-11-05T04:10:55.391Z,101045.53
2022-11-05T04:11:35.346Z,101023.00
2022-11-05T04:12:15.315Z,101045.00
2022-11-05T04:12:55.277Z,101049.47
2022-11-05T04:13:27.662Z,101044.19
2022-11-05T04:13:49.209Z,101045.00
2022-11-05T04:14:10.771Z,101045.94
2022-11-05T04:14:32.346Z,101048.59
2022-11-05T04:14:54.840Z,101052.09
2022-11-05T04:15:16.427Z,101055.59
2022-11-05T04:15:52.911Z,101052.06
2022-11-05T04:16:33.022Z,101053.00
2022-11-05T04:17:09.539Z,101045.13
2022-11-05T04:17:31.276Z,101049.44
2022-11-05T04:17:52.990Z,101051.28
2022-11-05T04:18:14.555Z,101056.59
2022-11-05T04:18:37.478Z,101056.59
2022-11-05T04:18:59.032Z,101054.84
2022-11-05T04:19:41.474Z,101051.19
2022-11-05T04:20:22.089Z,101053.84
2022-11-05T04:21:02.283Z,101050.28
2022-11-05T04:21:42.570Z,101054.63
2022-11-05T04:22:23.018Z,101053.66
2022-11-05T04:23:03.203Z,101044.19
2022-11-05T04:23:43.278Z,101052.03
2022-11-05T04:24:09.465Z,101049.28
2022-11-05T04:24:31.013Z,101054.69
2022-11-05T04:24:52.565Z,101053.69
2022-11-05T04:25:17.143Z,101044.84
2022-11-05T04:25:39.656Z,101055.44
2022-11-05T04:26:01.239Z,101053.66
2022-11-05T04:26:23.364Z,101043.91
2022-11-05T04:26:45.305Z,101050.13
2022-11-05T04:27:11.099Z,101056.31
2022-11-05T04:27:33.677Z,101052.81
2022-11-05T04:27:58.789Z,101057.19
2022-11-05T04:28:20.322Z,101050.94
2022-11-05T04:29:05.233Z,101053.66
2022-11-05T04:29:47.811Z,101057.47
2022-11-05T04:30:18.681Z,101054.91
2022-11-05T04:30:41.718Z,101062.88
2022-11-05T04:31:03.291Z,101057.66
2022-11-05T04:31:24.894Z,101056.69
2022-11-05T04:31:46.414Z,101049.72
2022-11-05T04:32:09.315Z,101058.63
2022-11-05T04:32:30.878Z,101060.38
2022-11-05T04:33:02.867Z,101065.69
2022-11-05T04:33:24.430Z,101059.56
2022-11-05T04:33:45.990Z,101063.94
2022-11-05T04:34:07.826Z,101058.63
2022-11-05T04:34:30.343Z,101058.59
2022-11-05T04:34:51.886Z,101064.78
2022-11-05T04:35:13.535Z,101062.16
2022-11-05T04:35:37.686Z,101056.91
2022-11-05T04:36:00.215Z,101062.25
2022-11-05T04:36:22.715Z,101054.38
2022-11-05T04:36:45.223Z,101063.94
2022-11-05T04:37:06.787Z,101060.38
2022-11-05T04:37:28.402Z,101063.00
2022-11-05T04:37:51.030Z,101063.00
2022-11-05T04:38:15.739Z,101063.75
2022-11-05T04:38:37.289Z,101054.13
2022-11-05T04:38:58.905Z,101057.44
2022-11-05T04:39:21.283Z,101058.31
2022-11-05T04:39:43.837Z,101063.66
2022-11-05T04:40:06.567Z,101066.28
2022-11-05T04:40:28.787Z,101069.84
2022-11-05T04:40:50.322Z,101065.38
2022-11-05T04:41:13.522Z,101064.50
2022-11-05T04:41:36.022Z,101066.38
2022-11-05T04:41:57.688Z,101066.28
2022-11-05T04:42:19.373Z,101034.19
2022-11-05T04:42:40.950Z,101059.22
2022-11-05T04:43:04.094Z,101059.25
2022-11-05T04:43:25.677Z,101058.53
2022-11-05T04:43:47.235Z,101070.94
2022-11-05T04:44:08.776Z,101060.28
2022-11-05T04:44:31.298Z,101068.31
2022-11-05T04:44:52.858Z,101058.75
2022-11-05T04:45:14.500Z,101064.94
2022-11-05T04:45:37.129Z,101067.66
2022-11-05T04:45:58.700Z,101066.78
2022-11-05T04:46:20.398Z,101068.56
2022-11-05T04:46:42.151Z,101061.56
2022-11-05T04:47:04.747Z,101071.28
2022-11-05T04:47:27.635Z,101069.41
2022-11-05T04:47:49.524Z,101070.16
2022-11-05T04:48:11.465Z,101065.69
2022-11-05T04:48:34.109Z,101067.44
2022-11-05T04:48:55.694Z,101067.44
2022-11-05T04:49:17.284Z,101063.00
2022-11-05T04:49:38.856Z,101056.06
2022-11-05T04:50:01.420Z,101065.69
2022-11-05T04:50:23.538Z,101059.66
2022-11-05T04:50:45.071Z,101060.53
2022-11-05T04:51:06.655Z,101059.66
2022-11-05T04:51:29.181Z,101064.06
2022-11-05T04:51:50.708Z,101055.25
2022-11-05T04:52:12.256Z,101057.81
2022-11-05T04:52:33.786Z,101054.34
2022-11-05T04:52:56.448Z,101057.00
2022-11-05T04:53:18.003Z,101055.16
2022-11-05T04:53:39.543Z,101060.38
2022-11-05T04:54:01.119Z,101064.78
2022-11-05T04:54:22.689Z,101055.06
2022-11-05T04:54:45.316Z,101055.97
2022-11-05T04:55:07.286Z,101056.91
2022-11-05T04:55:28.864Z,101063.94
2022-11-05T04:55:51.391Z,101057.72
2022-11-05T04:56:18.437Z,101063.03
2022-11-05T04:56:39.964Z,101057.91
2022-11-05T04:57:01.526Z,101057.03
2022-11-05T04:57:23.105Z,101058.03
2022-11-05T04:57:48.647Z,101052.69
2022-11-05T04:58:10.163Z,101053.63
2022-11-05T04:58:31.761Z,101052.84
2022-11-05T04:58:53.394Z,101063.50
2022-11-05T04:59:14.911Z,101054.69
2022-11-05T04:59:37.543Z,101053.88
2022-11-05T04:59:59.136Z,101053.81
2022-11-05T05:00:22.193Z,101064.47
2022-11-05T05:00:44.787Z,101057.41
2022-11-05T05:01:06.743Z,101052.97
2022-11-05T05:01:28.436Z,101058.41
2022-11-05T05:01:51.341Z,101046.97
2022-11-05T05:02:13.914Z,101055.72
2022-11-05T05:02:37.148Z,101051.22
2022-11-05T05:02:58.708Z,101059.97
2022-11-05T05:03:20.269Z,101057.31
2022-11-05T05:03:43.102Z,101055.47
2022-11-05T05:04:04.800Z,101054.53
2022-11-05T05:04:26.371Z,101057.19
2022-11-05T05:04:47.961Z,101057.19
2022-11-05T05:05:10.649Z,101064.25
2022-11-05T05:05:32.193Z,101053.66
2022-11-05T05:05:54.189Z,101044.97
2022-11-05T05:06:16.130Z,101053.75
2022-11-05T05:06:38.726Z,101048.41
2022-11-05T05:07:00.362Z,101054.59
2022-11-05T05:07:21.954Z,101056.38
2022-11-05T05:07:43.513Z,101067.06
2022-11-05T05:08:06.958Z,101063.66